KDPG/DPG METAR and TAF weather

Enter ICAO airport designator
Station Type Date Time Source
KDPG METAR 2018/04/19 22:54 UTC NOAA

KDPG 192254Z 31011G15KT 40SM BKN120 OVC140 16/M11 A2975 RMK SLP049 VIRGA ALQDS T01590112 LAST


Station Type Date Time Source
KDPG Decoded METAR 2018/04/19 22:54 UTC NOAA

Dugway Proving Grounds, UT, United States (KDPG) 40-10N 112-56W 1325M
Apr 19, 2018 - 06:54 PM EDT / 2018.04.19 2254 UTC
Wind: from the NW (310 degrees) at 13 MPH (11 KT) gusting to 17 MPH (15 KT):0
Visibility: 40 mile(s):0
Sky conditions: overcast
Temperature: 60.6 F (15.9 C)
Dew Point: 52.2 F (11.2 C)
Relative Humidity: 73%
Pressure (altimeter): 29.75 in. Hg (1007 hPa)
ob: KDPG 192254Z 31011G15KT 40SM BKN120 OVC140 16/M11 A2975 RMK SLP049 VIRGA ALQDS T01590112 LAST
cycle: 23

Station Type Date Time Source
KDPG TAF UTC NOAA

Error!


Example: see airport list